createdAt,value
2019-05-25T00:00:39.177Z,14.60
2019-05-25T00:05:40.769Z,14.50
2019-05-25T00:10:42.552Z,14.20
2019-05-25T00:15:44.126Z,14.40
2019-05-25T00:20:45.723Z,14.40
2019-05-25T00:25:47.412Z,14.50
2019-05-25T00:30:49.015Z,14.10
2019-05-25T00:35:50.670Z,13.90
2019-05-25T00:40:52.270Z,13.50
2019-05-25T00:45:53.741Z,13.30
2019-05-25T00:50:55.324Z,13.10
2019-05-25T00:55:57.084Z,12.90
2019-05-25T01:00:58.905Z,12.70
2019-05-25T01:06:00.589Z,12.50
2019-05-25T01:11:02.658Z,12.40
2019-05-25T01:16:04.481Z,12.30
2019-05-25T01:21:05.963Z,12.20
2019-05-25T01:26:07.564Z,11.90
2019-05-25T01:31:09.742Z,11.90
2019-05-25T01:36:11.404Z,11.80
2019-05-25T01:41:13.009Z,11.60
2019-05-25T01:46:14.603Z,11.70
2019-05-25T01:51:16.203Z,11.60
2019-05-25T01:56:17.689Z,11.90
2019-05-25T02:01:19.287Z,11.70
2019-05-25T02:06:21.126Z,11.80
2019-05-25T02:11:22.721Z,11.90
2019-05-25T02:16:24.247Z,11.70
2019-05-25T02:21:25.838Z,11.70
2019-05-25T02:26:27.343Z,11.40
2019-05-25T02:31:28.951Z,11.30
2019-05-25T02:36:30.612Z,11.10
2019-05-25T02:41:32.113Z,11.10
2019-05-25T02:46:33.718Z,10.90
2019-05-25T02:51:35.407Z,10.90
2019-05-25T02:56:36.904Z,10.70
2019-05-25T03:01:38.668Z,10.60
2019-05-25T03:06:41.067Z,10.50
2019-05-25T03:11:42.965Z,10.60
2019-05-25T03:16:44.509Z,10.70
2019-05-25T03:21:45.925Z,10.60
2019-05-25T03:26:47.431Z,10.70
2019-05-25T03:31:49.021Z,11.00
2019-05-25T03:36:50.654Z,10.90
2019-05-25T03:41:52.222Z,10.90
2019-05-25T03:46:53.941Z,10.80
2019-05-25T03:51:55.505Z,10.80
2019-05-25T03:56:57.096Z,10.80
2019-05-25T04:01:58.637Z,10.80
2019-05-25T04:07:00.118Z,10.90
2019-05-25T04:12:01.606Z,11.00
2019-05-25T04:17:03.339Z,10.90
2019-05-25T04:22:05.034Z,11.10
2019-05-25T04:27:06.531Z,11.20
2019-05-25T04:32:08.037Z,11.10
2019-05-25T04:37:09.621Z,11.20
2019-05-25T04:42:11.210Z,11.30
2019-05-25T04:47:26.058Z,11.30
2019-05-25T04:52:16.191Z,11.30
2019-05-25T04:57:17.801Z,11.50
2019-05-25T05:02:19.290Z,11.60
2019-05-25T05:07:20.889Z,11.50
2019-05-25T05:12:22.381Z,11.50
2019-05-25T05:17:23.884Z,11.50
2019-05-25T05:22:25.818Z,11.60
2019-05-25T05:27:27.389Z,11.60
2019-05-25T05:32:29.081Z,11.70
2019-05-25T05:37:31.249Z,11.80
2019-05-25T05:42:36.928Z,11.90
2019-05-25T05:47:42.010Z,11.90
2019-05-25T05:52:47.031Z,11.90
2019-05-25T05:57:48.665Z,11.90
2019-05-25T06:02:50.204Z,11.90
2019-05-25T06:07:51.923Z,12.10
2019-05-25T06:12:53.402Z,12.20
2019-05-25T06:17:55.001Z,12.40
2019-05-25T06:22:56.573Z,12.50
2019-05-25T06:27:58.129Z,12.70
2019-05-25T06:32:59.678Z,12.60
2019-05-25T06:38:01.462Z,12.80
2019-05-25T06:43:03.253Z,12.80
2019-05-25T06:48:05.366Z,12.80
2019-05-25T06:53:07.201Z,13.50
2019-05-25T06:58:08.711Z,13.40
2019-05-25T07:03:10.318Z,13.30
2019-05-25T07:08:12.023Z,13.60
2019-05-25T07:13:13.605Z,13.70
2019-05-25T07:18:15.754Z,14.10
2019-05-25T07:23:17.865Z,14.00
2019-05-25T07:28:19.853Z,14.40
2019-05-25T07:33:21.834Z,14.40
2019-05-25T07:38:23.490Z,14.60
2019-05-25T07:43:25.634Z,14.30
2019-05-25T07:48:27.349Z,14.40
2019-05-25T07:53:28.952Z,14.60
2019-05-25T07:58:30.424Z,14.50
2019-05-25T08:03:31.931Z,14.50
2019-05-25T08:08:33.846Z,14.50
2019-05-25T08:13:35.764Z,14.90
2019-05-25T08:18:37.283Z,14.60
2019-05-25T08:23:38.778Z,15.30
2019-05-25T08:28:40.327Z,15.20
2019-05-25T08:33:42.105Z,15.50
2019-05-25T08:38:43.677Z,15.20
2019-05-25T08:43:45.269Z,15.20
2019-05-25T08:48:46.757Z,15.10
2019-05-25T08:53:48.275Z,15.40
2019-05-25T08:58:50.074Z,15.30
2019-05-25T09:03:52.281Z,15.00
2019-05-25T09:08:53.870Z,15.00
2019-05-25T09:13:55.668Z,14.80
2019-05-25T09:18:57.150Z,14.80
2019-05-25T09:23:58.641Z,15.00
2019-05-25T09:29:04.326Z,14.70
2019-05-25T09:34:03.912Z,14.80
2019-05-25T09:39:06.354Z,14.70
2019-05-25T09:44:07.857Z,14.70
2019-05-25T09:49:09.350Z,14.80
2019-05-25T09:54:11.041Z,15.10
2019-05-25T09:59:20.011Z,15.30
2019-05-25T10:04:16.725Z,15.10
2019-05-25T10:09:18.419Z,14.60
2019-05-25T10:14:19.935Z,14.80
2019-05-25T10:19:21.689Z,15.40
2019-05-25T10:24:23.236Z,15.90
2019-05-25T10:29:36.611Z,15.50
2019-05-25T10:34:28.447Z,15.80
2019-05-25T10:39:30.118Z,16.00
2019-05-25T10:44:32.048Z,16.20
2019-05-25T10:49:33.654Z,16.30
2019-05-25T10:54:35.500Z,16.80
2019-05-25T10:59:51.858Z,16.50
2019-05-25T11:04:40.829Z,16.60
2019-05-25T11:09:42.644Z,16.10
2019-05-25T11:14:44.461Z,16.50
2019-05-25T11:19:46.160Z,17.10
2019-05-25T11:24:47.750Z,18.10
2019-05-25T11:29:49.372Z,17.70
2019-05-25T11:34:51.265Z,17.30
2019-05-25T11:39:53.114Z,17.20
2019-05-25T11:44:54.614Z,17.30
2019-05-25T11:49:56.311Z,17.60
2019-05-25T11:54:57.894Z,17.60
2019-05-25T11:59:59.491Z,17.30
2019-05-25T12:05:00.971Z,16.90
2019-05-25T12:10:04.650Z,17.30
2019-05-25T12:15:08.027Z,17.20
2019-05-25T12:20:12.389Z,16.90
2019-05-25T12:25:14.985Z,17.20
2019-05-25T12:30:17.506Z,17.00
2019-05-25T12:35:19.285Z,16.90
2019-05-25T12:40:21.187Z,16.70
2019-05-25T12:45:23.479Z,17.10
2019-05-25T12:50:25.044Z,17.20
2019-05-25T12:55:26.615Z,17.40
2019-05-25T13:00:28.209Z,17.20
2019-05-25T13:05:34.197Z,17.10
2019-05-25T13:10:33.708Z,16.70
2019-05-25T13:15:35.298Z,16.80
2019-05-25T13:20:36.794Z,16.40
2019-05-25T13:25:38.308Z,16.50
2019-05-25T13:30:39.910Z,17.00
2019-05-25T13:35:41.403Z,16.80
2019-05-25T13:40:44.084Z,16.90
2019-05-25T13:45:46.194Z,17.60
2019-05-25T13:50:48.655Z,18.30
2019-05-25T13:55:50.332Z,17.60
2019-05-25T14:00:52.016Z,18.00
2019-05-25T14:05:53.752Z,17.30
2019-05-25T14:10:55.464Z,17.20
2019-05-25T14:16:06.629Z,17.10
2019-05-25T14:21:01.997Z,17.00
2019-05-25T14:26:04.486Z,17.00
2019-05-25T14:31:06.014Z,16.70
2019-05-25T14:36:07.873Z,17.10
2019-05-25T14:41:09.461Z,16.90
2019-05-25T14:46:26.599Z,16.80
2019-05-25T14:51:14.997Z,16.50
2019-05-25T14:56:16.489Z,17.00
2019-05-25T15:01:18.014Z,16.60
2019-05-25T15:06:20.934Z,16.50
2019-05-25T15:11:22.969Z,16.60
2019-05-25T15:16:24.466Z,16.60
2019-05-25T15:21:26.726Z,16.20
2019-05-25T15:26:28.725Z,16.20
2019-05-25T15:31:30.307Z,16.30
2019-05-25T15:36:32.000Z,16.10
2019-05-25T15:41:34.234Z,15.90
2019-05-25T15:46:35.905Z,15.90
2019-05-25T15:51:37.460Z,15.80
2019-05-25T15:56:38.964Z,15.80
2019-05-25T16:01:40.546Z,16.00
2019-05-25T16:06:42.042Z,15.90
2019-05-25T16:11:43.541Z,15.70
2019-05-25T16:16:45.264Z,15.70
2019-05-25T16:21:47.000Z,16.00
2019-05-25T16:26:48.683Z,15.60
2019-05-25T16:31:50.171Z,15.60
2019-05-25T16:36:51.721Z,15.60
2019-05-25T16:41:53.641Z,15.60
2019-05-25T16:46:55.231Z,15.70
2019-05-25T16:51:56.730Z,15.60
2019-05-25T16:56:58.420Z,15.60
2019-05-25T17:02:00.016Z,15.60
2019-05-25T17:07:01.800Z,15.70
2019-05-25T17:12:03.636Z,15.50
2019-05-25T17:17:05.716Z,15.30
2019-05-25T17:22:07.401Z,15.20
2019-05-25T17:27:11.266Z,15.20
2019-05-25T17:32:13.151Z,15.30
2019-05-25T17:37:15.110Z,15.20
2019-05-25T17:42:16.982Z,15.20
2019-05-25T17:47:18.512Z,15.10
2019-05-25T17:52:22.885Z,15.00
2019-05-25T17:57:24.117Z,15.10
2019-05-25T18:02:25.711Z,15.00
2019-05-25T18:07:28.069Z,14.90
2019-05-25T18:12:30.048Z,15.00
2019-05-25T18:17:32.250Z,14.90
2019-05-25T18:22:34.106Z,14.80
2019-05-25T18:27:36.369Z,14.70
2019-05-25T18:32:38.909Z,14.80
2019-05-25T18:37:40.426Z,14.70
2019-05-25T18:42:42.070Z,14.70
2019-05-25T18:47:43.709Z,14.70
2019-05-25T18:52:45.309Z,14.70
2019-05-25T18:57:47.025Z,14.50
2019-05-25T19:02:49.734Z,14.40
2019-05-25T19:07:51.681Z,14.50
2019-05-25T19:12:53.754Z,14.40
2019-05-25T19:17:55.291Z,14.30
2019-05-25T19:22:56.847Z,14.40
2019-05-25T19:27:58.669Z,14.40
2019-05-25T19:33:00.273Z,14.30
2019-05-25T19:38:02.016Z,14.20
2019-05-25T19:43:03.807Z,14.20
2019-05-25T19:48:05.435Z,14.00
2019-05-25T19:53:07.132Z,13.90
2019-05-25T19:58:09.362Z,13.70
2019-05-25T20:03:10.867Z,13.20
2019-05-25T20:08:12.620Z,12.80
2019-05-25T20:13:14.218Z,12.40
2019-05-25T20:18:15.723Z,12.20
2019-05-25T20:23:17.213Z,12.00
2019-05-25T20:28:18.810Z,11.80
2019-05-25T20:33:27.795Z,11.60
2019-05-25T20:38:24.066Z,11.40
2019-05-25T20:43:25.673Z,11.20
2019-05-25T20:48:27.162Z,11.10
2019-05-25T20:53:28.848Z,10.80
2019-05-25T20:58:30.369Z,10.70
2019-05-25T21:03:31.849Z,10.60
2019-05-25T21:08:33.334Z,10.40
2019-05-25T21:13:35.127Z,10.30
2019-05-25T21:18:36.734Z,10.20
2019-05-25T21:23:38.496Z,10.10
2019-05-25T21:28:39.980Z,10.00
2019-05-25T21:33:41.682Z,10.00
2019-05-25T21:38:43.261Z,10.00
2019-05-25T21:43:44.915Z,10.00
2019-05-25T21:48:46.741Z,9.90
2019-05-25T21:53:48.297Z,10.00
2019-05-25T21:58:50.642Z,9.90
2019-05-25T22:03:52.161Z,9.90
2019-05-25T22:08:53.934Z,9.80
2019-05-25T22:13:55.527Z,9.70
2019-05-25T22:18:57.042Z,9.60
2019-05-25T22:23:58.719Z,9.60
2019-05-25T22:29:00.195Z,9.40
2019-05-25T22:34:01.748Z,9.40
2019-05-25T22:39:07.173Z,9.30
2019-05-25T22:44:09.028Z,9.20
2019-05-25T22:49:10.539Z,9.10
2019-05-25T22:54:12.033Z,9.10
2019-05-25T22:59:13.529Z,9.00
2019-05-25T23:04:15.022Z,8.90
2019-05-25T23:09:16.508Z,8.90
2019-05-25T23:14:18.002Z,9.00
2019-05-25T23:19:19.762Z,8.90
2019-05-25T23:24:21.547Z,8.80
2019-05-25T23:29:23.116Z,8.80
2019-05-25T23:34:24.718Z,8.70
2019-05-25T23:39:26.315Z,8.70
2019-05-25T23:44:28.278Z,8.60
2019-05-25T23:49:29.762Z,8.50
2019-05-25T23:54:31.276Z,8.40
2019-05-25T23:59:32.766Z,8.40
